createdAt,value
2023-06-29T00:00:12.529Z,20.20
2023-06-29T00:02:43.186Z,20.20
2023-06-29T00:05:12.743Z,20.20
2023-06-29T00:07:42.566Z,20.20
2023-06-29T00:10:12.022Z,20.20
2023-06-29T00:12:40.124Z,20.20
2023-06-29T00:15:09.152Z,20.10
2023-06-29T00:17:37.214Z,20.00
2023-06-29T00:20:12.221Z,20.00
2023-06-29T00:22:41.365Z,19.90
2023-06-29T00:25:12.835Z,19.90
2023-06-29T00:27:40.975Z,19.80
2023-06-29T00:30:12.022Z,19.80
2023-06-29T00:32:40.096Z,19.80
2023-06-29T00:35:10.244Z,19.80
2023-06-29T00:37:38.260Z,19.80
2023-06-29T00:40:07.454Z,19.80
2023-06-29T00:42:35.533Z,19.80
2023-06-29T00:45:06.790Z,19.80
2023-06-29T00:47:38.169Z,19.70
2023-06-29T00:50:08.236Z,19.70
2023-06-29T00:52:46.229Z,19.70
2023-06-29T00:55:14.292Z,19.70
2023-06-29T00:57:42.302Z,19.70
2023-06-29T01:00:12.880Z,19.70
2023-06-29T01:02:42.626Z,19.70
2023-06-29T01:05:14.614Z,19.70
2023-06-29T01:07:58.423Z,19.70
2023-06-29T01:10:29.394Z,19.70
2023-06-29T01:12:58.863Z,19.60
2023-06-29T01:15:27.633Z,19.60
2023-06-29T01:17:56.924Z,19.60
2023-06-29T01:20:32.634Z,19.60
2023-06-29T01:23:11.989Z,19.60
2023-06-29T01:25:42.982Z,19.60
2023-06-29T01:28:12.857Z,19.60
2023-06-29T01:30:49.657Z,19.60
2023-06-29T01:33:18.698Z,19.50
2023-06-29T01:35:47.340Z,19.60
2023-06-29T01:38:21.537Z,19.60
2023-06-29T01:40:51.590Z,19.60
2023-06-29T01:43:21.273Z,19.60
2023-06-29T01:45:50.612Z,19.60
2023-06-29T01:48:19.587Z,19.70
2023-06-29T01:50:48.566Z,19.70
2023-06-29T01:53:16.835Z,19.60
2023-06-29T01:55:45.071Z,19.60
2023-06-29T01:58:14.697Z,19.60
2023-06-29T02:00:42.784Z,19.50
2023-06-29T02:03:10.955Z,19.50
2023-06-29T02:05:39.116Z,19.50
2023-06-29T02:08:07.303Z,19.50
2023-06-29T02:10:35.401Z,19.60
2023-06-29T02:13:03.494Z,19.60
2023-06-29T02:15:32.887Z,19.60
2023-06-29T02:18:01.045Z,19.70
2023-06-29T02:20:29.125Z,19.70
2023-06-29T02:22:57.141Z,19.70
2023-06-29T02:25:25.255Z,19.70
2023-06-29T02:27:53.277Z,19.80
2023-06-29T02:30:21.278Z,19.80
2023-06-29T02:32:50.662Z,19.80
2023-06-29T02:35:18.831Z,19.80
2023-06-29T02:37:47.136Z,19.80
2023-06-29T02:40:15.402Z,19.80
2023-06-29T02:42:43.796Z,19.80
2023-06-29T02:45:12.128Z,19.80
2023-06-29T02:47:40.205Z,19.80
2023-06-29T02:50:10.607Z,19.80
2023-06-29T02:52:38.645Z,19.80
2023-06-29T02:55:07.503Z,19.80
2023-06-29T02:57:35.539Z,19.80
2023-06-29T03:00:04.531Z,19.80
2023-06-29T03:02:32.642Z,19.80
2023-06-29T03:05:00.722Z,19.80
2023-06-29T03:07:30.197Z,19.80
2023-06-29T03:09:58.361Z,19.80
2023-06-29T03:12:26.948Z,19.80
2023-06-29T03:14:54.962Z,19.80
2023-06-29T03:17:25.722Z,19.80
2023-06-29T03:19:53.887Z,19.80
2023-06-29T03:22:22.034Z,19.80
2023-06-29T03:24:51.499Z,19.80
2023-06-29T03:27:19.709Z,19.80
2023-06-29T03:29:49.607Z,19.80
2023-06-29T03:32:17.626Z,19.80
2023-06-29T03:34:45.756Z,19.80
2023-06-29T03:37:13.866Z,19.80
2023-06-29T03:39:41.929Z,19.80
2023-06-29T03:42:11.402Z,19.80
2023-06-29T03:44:40.602Z,19.90
2023-06-29T03:47:08.901Z,19.80
2023-06-29T03:49:36.960Z,19.90
2023-06-29T03:52:05.415Z,19.90
2023-06-29T03:54:33.463Z,19.90
2023-06-29T03:57:02.930Z,19.80
2023-06-29T03:59:32.588Z,19.90
2023-06-29T04:02:00.658Z,19.90
2023-06-29T04:04:28.721Z,19.90
2023-06-29T04:06:56.748Z,19.90
2023-06-29T04:09:24.782Z,19.90
2023-06-29T04:11:52.830Z,19.90
2023-06-29T04:14:20.845Z,19.90
2023-06-29T04:16:50.279Z,19.90
2023-06-29T04:19:18.316Z,19.90
2023-06-29T04:21:46.388Z,19.90
2023-06-29T04:24:14.442Z,19.90
2023-06-29T04:26:42.472Z,19.90
2023-06-29T04:29:10.565Z,19.90
2023-06-29T04:31:38.603Z,19.90
2023-06-29T04:34:08.021Z,19.90
2023-06-29T04:36:36.090Z,19.90
2023-06-29T04:39:05.003Z,19.90
2023-06-29T04:41:33.117Z,19.90
2023-06-29T04:44:02.041Z,19.90
2023-06-29T04:46:30.349Z,19.80
2023-06-29T04:48:58.482Z,19.90
2023-06-29T04:51:27.936Z,19.90
2023-06-29T04:53:55.986Z,19.80
2023-06-29T04:56:23.995Z,19.90
2023-06-29T04:58:52.008Z,19.90
2023-06-29T05:01:20.110Z,19.90
2023-06-29T05:03:48.307Z,19.90
2023-06-29T05:06:16.530Z,19.90
2023-06-29T05:08:46.018Z,20.00
2023-06-29T05:11:14.075Z,20.00
2023-06-29T05:13:42.079Z,20.00
2023-06-29T05:16:10.134Z,20.00
2023-06-29T05:18:38.774Z,20.10
2023-06-29T05:21:06.923Z,20.10
2023-06-29T05:23:35.090Z,20.10
2023-06-29T05:26:04.550Z,20.10
2023-06-29T05:28:32.994Z,20.10
2023-06-29T05:31:01.313Z,20.10
2023-06-29T05:33:29.713Z,20.10
2023-06-29T05:35:57.754Z,20.20
2023-06-29T05:38:26.613Z,20.20
2023-06-29T05:40:54.754Z,20.20
2023-06-29T05:43:25.131Z,20.20
2023-06-29T05:45:53.252Z,20.20
2023-06-29T05:48:21.323Z,20.20
2023-06-29T05:50:49.385Z,20.20
2023-06-29T05:53:17.514Z,20.20
2023-06-29T05:55:45.761Z,20.30
2023-06-29T05:58:13.840Z,20.30
2023-06-29T06:00:43.374Z,20.30
2023-06-29T06:03:11.803Z,20.30
2023-06-29T06:05:39.938Z,20.40
2023-06-29T06:08:07.979Z,20.40
2023-06-29T06:10:36.014Z,20.40
2023-06-29T06:13:05.645Z,20.50
2023-06-29T06:15:33.694Z,20.50
2023-06-29T06:18:03.156Z,20.50
2023-06-29T06:20:31.341Z,20.50
2023-06-29T06:22:59.395Z,20.50
2023-06-29T06:25:27.617Z,20.50
2023-06-29T06:27:55.658Z,20.60
2023-06-29T06:30:24.780Z,20.60
2023-06-29T06:32:52.939Z,20.60
2023-06-29T06:35:23.034Z,20.70
2023-06-29T06:37:51.513Z,20.70
2023-06-29T06:40:19.777Z,20.70
2023-06-29T06:42:47.909Z,20.80
2023-06-29T06:45:16.039Z,20.80
2023-06-29T06:47:44.127Z,20.80
2023-06-29T06:50:12.506Z,20.90
2023-06-29T06:52:41.940Z,20.80
2023-06-29T06:55:10.491Z,20.90
2023-06-29T06:57:38.700Z,20.90
2023-06-29T07:00:11.938Z,20.90
2023-06-29T07:02:40.252Z,21.00
2023-06-29T07:05:09.264Z,21.00
2023-06-29T07:07:37.356Z,21.10
2023-06-29T07:10:07.715Z,21.10
2023-06-29T07:12:35.819Z,21.10
2023-06-29T07:15:04.135Z,21.20
2023-06-29T07:17:33.433Z,21.20
2023-06-29T07:25:05.937Z,21.40
2023-06-29T07:27:35.352Z,21.50
2023-06-29T07:30:04.612Z,21.50
2023-06-29T07:32:32.688Z,21.60
2023-06-29T07:35:00.814Z,21.70
2023-06-29T07:37:28.926Z,21.80
2023-06-29T07:39:56.995Z,21.90
2023-06-29T07:42:38.220Z,21.90
2023-06-29T07:45:09.913Z,22.00
2023-06-29T07:47:38.184Z,22.10
2023-06-29T07:50:07.204Z,22.20
2023-06-29T07:52:35.422Z,22.20
2023-06-29T07:55:03.552Z,22.30
2023-06-29T08:00:02.657Z,22.40
2023-06-29T08:02:32.096Z,22.50
2023-06-29T08:07:31.171Z,22.60
2023-06-29T08:09:59.228Z,22.70
2023-06-29T08:12:27.284Z,22.80
2023-06-29T08:14:55.303Z,22.80
2023-06-29T08:17:23.399Z,22.90
2023-06-29T08:19:52.831Z,23.00
2023-06-29T08:22:21.091Z,23.10
2023-06-29T08:24:49.151Z,23.20
2023-06-29T08:27:17.247Z,23.30
2023-06-29T08:29:45.312Z,23.40
2023-06-29T08:32:13.474Z,23.60
2023-06-29T08:34:41.641Z,23.70
2023-06-29T08:37:11.052Z,23.80
2023-06-29T08:39:39.172Z,24.00
2023-06-29T08:42:08.389Z,24.20
2023-06-29T08:44:36.618Z,24.30
2023-06-29T08:47:06.652Z,24.50
2023-06-29T08:49:36.924Z,24.60
2023-06-29T08:52:06.411Z,24.70
2023-06-29T08:54:36.404Z,24.80
2023-06-29T08:57:06.317Z,24.90
2023-06-29T08:59:35.161Z,25.00
2023-06-29T09:02:04.591Z,25.00
2023-06-29T09:04:32.736Z,25.10
2023-06-29T09:07:00.801Z,25.10
2023-06-29T09:09:29.099Z,25.10
2023-06-29T09:11:58.517Z,25.10
2023-06-29T09:14:26.684Z,25.20
2023-06-29T09:16:58.571Z,25.20
2023-06-29T09:19:27.387Z,25.20
2023-06-29T09:21:56.079Z,25.30
2023-06-29T09:24:24.225Z,25.30
2023-06-29T09:26:56.241Z,25.30
2023-06-29T09:29:25.765Z,25.40
2023-06-29T09:31:57.369Z,25.40
2023-06-29T09:34:27.688Z,25.50
2023-06-29T09:36:56.442Z,25.50
2023-06-29T09:39:26.476Z,25.60
2023-06-29T09:41:57.328Z,25.60
2023-06-29T09:44:28.110Z,25.60
2023-06-29T09:49:46.822Z,25.70
2023-06-29T09:52:15.111Z,25.70
2023-06-29T09:54:44.002Z,25.80
2023-06-29T09:57:12.945Z,25.80
2023-06-29T09:59:45.284Z,25.90
2023-06-29T10:02:14.403Z,25.90
2023-06-29T10:04:43.749Z,25.90
2023-06-29T10:07:16.662Z,25.90
2023-06-29T10:09:48.626Z,25.90
2023-06-29T10:12:19.767Z,26.00
2023-06-29T10:14:50.034Z,25.90
2023-06-29T10:17:23.536Z,25.90
2023-06-29T10:19:53.147Z,25.80
2023-06-29T10:22:23.472Z,25.80
2023-06-29T10:24:55.608Z,25.90
2023-06-29T10:27:26.350Z,25.90
2023-06-29T10:29:55.881Z,26.00
2023-06-29T10:32:34.615Z,26.00
2023-06-29T10:35:06.175Z,26.00
2023-06-29T10:37:35.096Z,26.00
2023-06-29T10:40:06.338Z,26.00
2023-06-29T10:42:52.381Z,26.00
2023-06-29T10:45:39.489Z,26.00
2023-06-29T10:48:25.565Z,26.00
2023-06-29T10:50:59.780Z,26.00
2023-06-29T10:53:31.129Z,26.00
2023-06-29T10:55:59.280Z,26.00
2023-06-29T10:58:30.170Z,26.00
2023-06-29T11:01:00.837Z,25.90
2023-06-29T11:03:29.210Z,25.90
2023-06-29T11:05:59.239Z,25.80
2023-06-29T11:08:27.520Z,25.80
2023-06-29T11:10:55.600Z,25.80
2023-06-29T11:13:23.989Z,25.70
2023-06-29T11:15:56.492Z,25.70
2023-06-29T11:18:25.961Z,25.60
2023-06-29T11:20:54.105Z,25.60
2023-06-29T11:23:22.539Z,25.50
2023-06-29T11:25:50.670Z,25.40
2023-06-29T11:28:18.816Z,25.30
2023-06-29T11:30:49.060Z,25.30
2023-06-29T11:33:33.431Z,25.20
2023-06-29T11:36:04.330Z,25.20
2023-06-29T11:38:32.728Z,25.20
2023-06-29T11:41:07.175Z,25.20
2023-06-29T11:43:35.498Z,25.30
2023-06-29T11:46:04.473Z,25.20
2023-06-29T11:48:32.723Z,25.20
2023-06-29T11:51:02.996Z,25.30
2023-06-29T11:53:31.767Z,25.30
2023-06-29T11:56:00.512Z,25.20
2023-06-29T11:58:35.186Z,25.20
2023-06-29T12:01:03.739Z,25.10
2023-06-29T12:03:32.235Z,25.10
2023-06-29T12:06:03.413Z,25.00
2023-06-29T12:08:40.187Z,25.00
2023-06-29T12:11:08.414Z,25.00
2023-06-29T12:13:36.456Z,25.00
2023-06-29T12:18:38.249Z,24.90
2023-06-29T12:21:08.237Z,24.90
2023-06-29T12:23:36.530Z,24.90
2023-06-29T12:26:05.569Z,24.90
2023-06-29T12:28:34.280Z,24.90
2023-06-29T12:31:04.787Z,24.90
2023-06-29T12:33:32.883Z,24.80
2023-06-29T12:36:01.098Z,24.90
2023-06-29T12:38:30.488Z,24.90
2023-06-29T12:40:58.586Z,24.90
2023-06-29T12:43:26.653Z,24.90
2023-06-29T12:45:54.682Z,24.90
2023-06-29T12:48:22.849Z,24.90
2023-06-29T12:50:50.956Z,24.90
2023-06-29T12:53:19.070Z,24.90
2023-06-29T12:55:48.761Z,24.90
2023-06-29T12:58:17.129Z,24.90
2023-06-29T13:00:45.215Z,24.90
2023-06-29T13:03:15.981Z,24.90
2023-06-29T13:05:44.507Z,24.80
2023-06-29T13:08:13.190Z,24.80
2023-06-29T13:10:41.206Z,24.80
2023-06-29T13:13:10.646Z,24.80
2023-06-29T13:15:38.795Z,24.80
2023-06-29T13:18:06.839Z,24.80
2023-06-29T13:20:35.020Z,24.70
2023-06-29T13:23:03.114Z,24.70
2023-06-29T13:25:31.160Z,24.70
2023-06-29T13:27:59.218Z,24.70
2023-06-29T13:30:28.635Z,24.70
2023-06-29T13:32:56.749Z,24.70
2023-06-29T13:35:24.945Z,24.60
2023-06-29T13:37:53.499Z,24.60
2023-06-29T13:40:21.514Z,24.60
2023-06-29T13:42:49.821Z,24.70
2023-06-29T13:45:17.873Z,24.70
2023-06-29T13:47:48.521Z,24.70
2023-06-29T13:50:20.305Z,24.70
2023-06-29T13:52:50.729Z,24.70
2023-06-29T13:55:19.480Z,24.70
2023-06-29T13:57:47.559Z,24.70
2023-06-29T14:00:16.396Z,24.70
2023-06-29T14:02:44.602Z,24.80
2023-06-29T14:05:14.025Z,24.70
2023-06-29T14:07:42.109Z,24.80
2023-06-29T14:10:10.489Z,24.80
2023-06-29T14:12:38.653Z,24.80
2023-06-29T14:15:07.752Z,24.80
2023-06-29T14:17:35.941Z,24.90
2023-06-29T14:20:04.611Z,24.90
2023-06-29T14:22:35.120Z,24.80
2023-06-29T14:25:04.844Z,24.80
2023-06-29T14:27:32.968Z,24.80
2023-06-29T14:30:01.020Z,24.80
2023-06-29T14:32:29.122Z,24.80
2023-06-29T14:34:57.157Z,24.80
2023-06-29T14:37:27.549Z,24.80
2023-06-29T14:39:56.990Z,24.80
2023-06-29T14:42:25.046Z,24.80
2023-06-29T14:44:53.084Z,24.80
2023-06-29T14:47:21.177Z,24.80
2023-06-29T14:49:49.191Z,24.80
2023-06-29T14:52:17.390Z,24.80
2023-06-29T14:54:45.629Z,24.80
2023-06-29T14:57:15.186Z,24.80
2023-06-29T14:59:43.261Z,24.80
2023-06-29T15:02:11.382Z,24.80
2023-06-29T15:04:39.502Z,24.80
2023-06-29T15:07:07.862Z,24.80
2023-06-29T15:09:36.030Z,24.80
2023-06-29T15:12:04.252Z,24.80
2023-06-29T15:14:33.836Z,24.80
2023-06-29T15:17:02.113Z,24.80
2023-06-29T15:19:30.657Z,24.80
2023-06-29T15:21:59.234Z,24.80
2023-06-29T15:24:27.736Z,24.80
2023-06-29T15:26:55.796Z,24.70
2023-06-29T15:29:24.093Z,24.70
2023-06-29T15:31:53.707Z,24.70
2023-06-29T15:34:22.057Z,24.70
2023-06-29T15:36:50.131Z,24.70
2023-06-29T15:39:18.213Z,24.70
2023-06-29T15:41:51.134Z,24.70
2023-06-29T15:44:19.598Z,24.70
2023-06-29T15:46:54.632Z,24.70
2023-06-29T15:49:23.602Z,24.70
2023-06-29T15:51:52.091Z,24.70
2023-06-29T15:54:20.140Z,24.70
2023-06-29T15:56:48.185Z,24.70
2023-06-29T15:59:16.215Z,24.70
2023-06-29T16:01:44.268Z,24.70
2023-06-29T16:04:17.001Z,24.70
2023-06-29T16:06:46.898Z,24.70
2023-06-29T16:09:15.220Z,24.80
2023-06-29T16:11:43.264Z,24.80
2023-06-29T16:14:11.421Z,24.80
2023-06-29T16:16:39.692Z,24.80
2023-06-29T16:19:07.812Z,24.80
2023-06-29T16:21:37.290Z,24.70
2023-06-29T16:24:05.955Z,24.70
2023-06-29T16:26:34.078Z,24.70
2023-06-29T16:29:02.174Z,24.70
2023-06-29T16:31:30.423Z,24.60
2023-06-29T16:33:59.136Z,24.60
2023-06-29T16:36:27.284Z,24.50
2023-06-29T16:38:56.788Z,24.50
2023-06-29T16:41:24.846Z,24.40
2023-06-29T16:43:54.540Z,24.40
2023-06-29T16:46:23.281Z,24.30
2023-06-29T16:48:58.637Z,24.30
2023-06-29T16:51:27.109Z,24.20
2023-06-29T16:53:56.595Z,24.20
2023-06-29T16:56:25.133Z,24.10
2023-06-29T16:58:55.255Z,24.00
2023-06-29T17:01:23.581Z,23.80
2023-06-29T17:03:51.796Z,23.70
2023-06-29T17:06:19.991Z,23.60
2023-06-29T17:08:48.063Z,23.50
2023-06-29T17:11:17.566Z,23.40
2023-06-29T17:13:45.737Z,23.40
2023-06-29T17:16:14.033Z,23.40
2023-06-29T17:18:42.314Z,23.30
2023-06-29T17:21:10.433Z,23.30
2023-06-29T17:23:38.494Z,23.30
2023-06-29T17:26:06.497Z,23.20
2023-06-29T17:28:35.883Z,23.10
2023-06-29T17:31:03.915Z,23.00
2023-06-29T17:33:44.809Z,23.00
2023-06-29T17:36:19.990Z,22.90
2023-06-29T17:38:48.129Z,22.90
2023-06-29T17:41:16.249Z,22.90
2023-06-29T17:43:45.662Z,22.80
2023-06-29T17:46:15.169Z,22.80
2023-06-29T17:48:43.262Z,22.70
2023-06-29T17:51:15.397Z,22.70
2023-06-29T17:53:45.357Z,22.60
2023-06-29T17:56:15.433Z,22.60
2023-06-29T17:58:46.028Z,22.60
2023-06-29T18:01:14.350Z,22.50
2023-06-29T18:03:42.954Z,22.50
2023-06-29T18:06:11.536Z,22.40
2023-06-29T18:08:40.440Z,22.40
2023-06-29T18:11:09.162Z,22.40
2023-06-29T18:13:37.235Z,22.30
2023-06-29T18:16:06.968Z,22.30
2023-06-29T18:18:35.467Z,22.20
2023-06-29T18:21:03.717Z,22.20
2023-06-29T18:23:31.735Z,22.10
2023-06-29T18:26:00.154Z,22.10
2023-06-29T18:28:28.172Z,22.10
2023-06-29T18:30:57.342Z,22.10
2023-06-29T18:33:26.740Z,22.00
2023-06-29T18:35:54.783Z,22.00
2023-06-29T18:38:22.920Z,22.00
2023-06-29T18:40:50.969Z,21.90
2023-06-29T18:43:19.036Z,21.90
2023-06-29T18:45:47.267Z,21.90
2023-06-29T18:48:15.567Z,21.90
2023-06-29T18:50:44.967Z,21.80
2023-06-29T18:53:13.025Z,21.90
2023-06-29T18:55:41.171Z,21.80
2023-06-29T18:58:09.249Z,21.80
2023-06-29T19:00:37.590Z,21.70
2023-06-29T19:03:06.061Z,21.70
2023-06-29T19:05:34.139Z,21.60
2023-06-29T19:08:03.707Z,21.60
2023-06-29T19:10:31.893Z,21.50
2023-06-29T19:13:00.086Z,21.50
2023-06-29T19:15:28.097Z,21.40
2023-06-29T19:17:56.146Z,21.40
2023-06-29T19:20:24.273Z,21.40
2023-06-29T19:22:53.812Z,21.30
2023-06-29T19:25:23.326Z,21.30
2023-06-29T19:27:51.396Z,21.30
2023-06-29T19:30:19.437Z,21.30
2023-06-29T19:32:47.472Z,21.30
2023-06-29T19:35:15.827Z,21.30
2023-06-29T19:37:43.878Z,21.30
2023-06-29T19:40:12.786Z,21.30
2023-06-29T19:42:42.211Z,21.30
2023-06-29T19:45:10.873Z,21.30
2023-06-29T19:47:39.211Z,21.30
2023-06-29T19:50:08.381Z,21.30
2023-06-29T19:52:36.467Z,21.30
2023-06-29T19:55:04.911Z,21.30
2023-06-29T19:57:32.955Z,21.30
2023-06-29T20:00:02.386Z,21.40
2023-06-29T20:02:30.456Z,21.30
2023-06-29T20:04:58.562Z,21.30
2023-06-29T20:07:26.714Z,21.30
2023-06-29T20:09:54.783Z,21.30
2023-06-29T20:12:22.859Z,21.20
2023-06-29T20:14:50.906Z,21.20
2023-06-29T20:17:20.368Z,21.20
2023-06-29T20:19:48.435Z,21.10
2023-06-29T20:22:16.607Z,21.10
2023-06-29T20:24:44.655Z,21.10
2023-06-29T20:27:12.831Z,21.00
2023-06-29T20:29:41.030Z,21.00
2023-06-29T20:32:09.970Z,20.90
2023-06-29T20:34:39.385Z,20.80
2023-06-29T20:37:07.774Z,20.80
2023-06-29T20:39:35.817Z,20.70
2023-06-29T20:42:03.926Z,20.70
2023-06-29T20:44:33.565Z,20.70
2023-06-29T20:47:02.211Z,20.60
2023-06-29T20:49:30.670Z,20.60
2023-06-29T20:52:00.199Z,20.60
2023-06-29T20:54:28.710Z,20.60
2023-06-29T20:56:56.749Z,20.60
2023-06-29T20:59:24.894Z,20.60
2023-06-29T21:01:53.232Z,20.60
2023-06-29T21:04:21.342Z,20.60
2023-06-29T21:06:49.513Z,20.50
2023-06-29T21:09:19.017Z,20.50
2023-06-29T21:11:47.227Z,20.50
2023-06-29T21:14:15.596Z,20.50
2023-06-29T21:16:43.950Z,20.50
2023-06-29T21:19:12.559Z,20.50
2023-06-29T21:21:41.214Z,20.50
2023-06-29T21:24:10.183Z,20.50
2023-06-29T21:26:39.648Z,20.40
2023-06-29T21:29:27.630Z,20.50
2023-06-29T21:32:03.555Z,20.40
2023-06-29T21:34:32.469Z,20.30
2023-06-29T21:37:01.067Z,20.30
2023-06-29T21:39:29.088Z,20.30
2023-06-29T21:41:58.717Z,20.30
2023-06-29T21:44:26.914Z,20.40
2023-06-29T21:46:55.013Z,20.40
2023-06-29T21:49:23.316Z,20.40
2023-06-29T21:51:51.442Z,20.40
2023-06-29T21:54:19.720Z,20.40
2023-06-29T21:56:47.756Z,20.40
2023-06-29T21:59:17.193Z,20.40
2023-06-29T22:01:45.308Z,20.40
2023-06-29T22:04:13.629Z,20.40
2023-06-29T22:06:42.089Z,20.40
2023-06-29T22:09:10.127Z,20.40
2023-06-29T22:11:39.815Z,20.40
2023-06-29T22:14:08.904Z,20.50
2023-06-29T22:16:38.679Z,20.50
2023-06-29T22:19:10.783Z,20.40
2023-06-29T22:21:39.027Z,20.40
2023-06-29T22:24:07.469Z,20.40
2023-06-29T22:26:35.524Z,20.40
2023-06-29T22:29:03.554Z,20.30
2023-06-29T22:31:31.582Z,20.30
2023-06-29T22:34:00.975Z,20.30
2023-06-29T22:36:29.005Z,20.30
2023-06-29T22:38:57.040Z,20.20
2023-06-29T22:41:25.083Z,20.20
2023-06-29T22:43:55.035Z,20.10
2023-06-29T22:46:23.329Z,20.00
2023-06-29T22:48:51.381Z,20.00
2023-06-29T22:51:25.329Z,20.00
2023-06-29T22:53:53.627Z,19.90
2023-06-29T22:56:22.236Z,19.90
2023-06-29T22:59:07.496Z,19.90
2023-06-29T23:01:35.570Z,19.90
2023-06-29T23:04:03.749Z,19.90
2023-06-29T23:06:33.343Z,19.80
2023-06-29T23:09:04.561Z,19.80
2023-06-29T23:11:33.111Z,19.80
2023-06-29T23:14:01.146Z,19.80
2023-06-29T23:16:32.759Z,19.90
2023-06-29T23:19:00.939Z,19.90
2023-06-29T23:21:29.404Z,19.90
2023-06-29T23:23:59.149Z,19.90
2023-06-29T23:26:27.900Z,19.90
2023-06-29T23:28:56.045Z,19.90
2023-06-29T23:31:24.513Z,19.90
2023-06-29T23:33:52.577Z,19.90
2023-06-29T23:36:22.276Z,19.90
2023-06-29T23:38:50.623Z,19.90
2023-06-29T23:41:21.113Z,19.90
2023-06-29T23:43:49.166Z,19.90
2023-06-29T23:46:17.225Z,19.90
2023-06-29T23:48:45.876Z,19.90
2023-06-29T23:51:13.975Z,19.90
2023-06-29T23:53:42.007Z,19.80
2023-06-29T23:56:10.033Z,19.90
2023-06-29T23:58:39.750Z,19.80
